x

South Santa Rosa Is. Ca (46069) Wave Buoy

8:50 - Sat 19th Apr 2014 All times are PDT. -7 hours from GMT.

  • Sig Wave height 6.2ft
  • Peak Period 11s
  • Average Period 6s
  • Wind
    22mph, 25mph gusts
  • Sea Temp 58°f
  • Aire Temp 55°f
  • Sea Pressure 1016.2mb
  • South Santa Rosa Is. Ca
  • South Santa Rosa Is. Ca

More Historic Weather Station data

Upgrade to MSW Pro to gain access to the past 30 days of data for over 8000 Wavebouys and Weather Stations around the globe.

Join Pro

Comparision Forecast

View Surf forecast
   
sáb 04/19 8:50 6ft 11s 6s 22 25 mph 1016.2mb 58f 55f
7:50 6.5ft 11s 6s 18 22 mph 1015.8mb 58f 55f
6:50 6.5ft 11s 6s 18 20 mph 1015.3mb 58f 55f
5:50 6ft 11s 6s 20 25 mph 1014.9mb 58f 54f
4:50 6.5ft 10s 6s 20 22 mph 1014.7mb 58f 55f
3:50 6.5ft 11s 6s 18 22 mph 1014.2mb 58f 54f
2:50 6ft 8s 6s 20 25 mph 1013.9mb 58f 55f
1:50 5.5ft 11s 5s 20 22 mph 1013.7mb 58f 55f
12:50 6.5ft 11s 6s 20 25 mph 1014mb 58f 55f
vie 04/18 11:50 7ft 11s 6s 22 29 mph 1014.1mb 58f 55f
10:50 6.5ft 11s 5s 25 29 mph 1014.2mb 58f 56f
9:50 6ft 8s 5s 25 27 mph 1014.1mb 58f 56f
8:50 7ft 11s 6s 25 29 mph 1013.6mb 58f 56f
7:50 6.5ft 11s 6s 25 29 mph 1013.1mb 58f 56f
6:50 7ft 11s 5s 25 29 mph 1012.9mb 59f 57f
5:50 7ft 11s 6s 25 29 mph 1012.9mb 59f 57f
4:50 7ft 8s 6s 22 27 mph 1012.9mb 59f 57f
3:50 7ft 12s 6s 20 22 mph 1013.1mb 59f 57f
2:50 8ft 11s 7s 20 22 mph 1013.6mb 59f 57f
1:50 8ft 9s 7s 11 16 mph 1013.7mb 59f 57f
12:50 7ft 10s 7s 11 13 mph 1013.9mb 58f 57f
11:50 7.5ft 11s 7s 9 11 mph 1013.7mb 58f 57f
10:50 6.5ft 12s 7s 13 16 mph 1013.7mb 58f 57f
9:50 7ft 11s 7s 11 13 mph 1013.6mb 58f 57f
8:50 6ft 11s 7s 13 18 mph 1013.1mb 58f 56f
7:50 6ft 11s 7s 16 18 mph 1012.8mb 58f 56f
6:50 6ft 11s 7s 18 20 mph 1012.4mb 58f 56f
5:50 6.5ft 12s 8s 13 16 mph 1012mb 58f 57f
4:50 6ft 11s 8s 13 18 mph 1011.8mb 58f 57f
3:50 6.5ft 10s 8s 13 16 mph 1011.8mb 58f 57f
2:50 6ft 13s 8s 7 9 mph 1011.8mb 58f 58f
1:50 6.5ft 13s 8s 7 9 mph 1012mb 58f 57f
12:50 6ft 9s 7s 9 11 mph 1012mb 58f 57f
jue 04/17 11:50 6ft 11s 7s 11 13 mph 1011.9mb 58f 56f
10:50 6ft 9s 7s 13 16 mph 1012.4mb 58f 56f
9:50 6ft 11s 7s 13 16 mph 1012.6mb 58f 57f
8:50 6ft 11s 7s 13 16 mph 1012.3mb 58f 57f
7:50 6ft 10s 6s 16 18 mph 1011.4mb 58f 57f
6:50 6ft 10s 7s 18 20 mph 1011mb 58f 57f
5:50 6ft 11s 7s 16 18 mph 1011.3mb 58f 57f
3:50 6.5ft 11s 7s 11 13 mph 1011.6mb 58f 58f
2:50 7ft 10s 8s 11 16 mph 1012.2mb 58f 57f
1:50 7ft 9s 8s 9 11 mph 1012.6mb 58f 57f
12:50 6.5ft 10s 7s 7 9 mph 1012.7mb 58f 58f
11:50 7ft 10s 8s 4 7 mph 1013.1mb 58f 58f
10:50 7ft 11s 8s 4 7 mph 1012.9mb 58f 58f
9:50 7ft 11s 8s 2
mph
1012.3mb 58f 58f
8:50 7ft 11s 7s 2
mph
1012.1mb 58f 58f
7:50 7.5ft 11s 8s 4 7 mph 1011.5mb 58f 57f
6:50 7ft 11s 8s 7 9 mph 1011.2mb 58f 57f
5:50 7.5ft 11s 8s 9 11 mph 1010.3mb 58f 57f
4:50 7.5ft 11s 8s 7
mph
1010.6mb 58f 57f
3:50 9ft 11s 8s 2 4 mph 1010.5mb 58f 56f
2:50 7.5ft 11s 7s 11 13 mph 1010.1mb 57f 56f
1:50 7.5ft 11s 7s 13 16 mph 1010.5mb 57f 56f
12:50 7ft 12s 7s 11 13 mph 1010.7mb 57f 56f
mié 04/16 11:50 8ft 11s 6s 16 18 mph 1010.5mb 57f 56f
10:50 8ft 11s 6s 18 25 mph 1010.5mb 57f 57f
9:50 8.5ft 10s 7s 20 25 mph 1010.3mb 57f 57f
8:50 8ft 11s 6s 20 27 mph 1009.8mb 57f 57f
7:50 8ft 11s 6s 25 29 mph 1009.3mb 57f 57f
6:50 8ft 11s 7s 22 27 mph 1008.9mb 57f 57f
5:50 8.5ft 11s 7s 20 25 mph 1009.2mb 57f 57f
4:50 7.5ft 10s 7s 18 22 mph 1009.6mb 57f 57f
3:50 8.5ft 10s 7s 18 22 mph 1010.2mb 57f 57f
2:50 8.5ft 11s 7s 18 22 mph 1010.8mb 57f 57f
1:50 8.5ft 11s 7s 20 22 mph 1010.7mb 57f 56f
12:50 8.5ft 12s 7s 18 22 mph 1011.3mb 57f 55f
11:50 8ft 11s 6s 18 22 mph 1011.6mb 57f 55f
10:50 8.5ft 11s 6s 22 25 mph 1011.9mb 57f 55f
9:50 9ft 9s 6s 20 29 mph 1011.4mb 57f 55f
8:50 8.5ft 7s 6s 20 25 mph 1011.7mb 57f 55f
7:50 9.5ft 10s 6s 25 29 mph 1011.3mb 57f 55f
6:50 9ft 8s 6s 27 31 mph 1010.6mb 57f 55f
5:50 9ft 11s 6s 27 34 mph 1010.5mb 57f 55f
4:50 8.5ft 11s 6s 25 31 mph 1010.5mb 57f 56f
3:50 9ft 11s 6s 27 34 mph 1010.5mb 57f 56f
2:50 9ft 12s 6s 29 34 mph 1010mb 57f 56f
1:50 9.5ft 10s 6s 25 34 mph 1010.8mb 57f 56f
12:50 9ft 10s 6s 25 31 mph 1011.5mb 57f 56f
mar 04/15 11:50 8.5ft 6s 6s 27 31 mph 1011.3mb 57f 56f
10:50 9ft 10s 6s 27 34 mph 1011.3mb 57f 56f
9:50 9ft 10s 6s 25 29 mph 1011.9mb 57f 56f
8:50 7.5ft 13s 6s 25 29 mph 1011.4mb 57f 57f
7:50 8ft 13s 6s 22 27 mph 1011.1mb 57f 56f
6:50 6.5ft 6s 6s 25 29 mph 1011.4mb 57f 57f
5:50 7ft 8s 5s 25 29 mph 1011.5mb 57f 56f